Time,TemperatureF,DewpointF,PressureIn,WindDirection,WindDirectionDegrees,WindSpeedMPH,WindSpeedGustMPH,Humidity,HourlyPrecipIn,Conditions,Clouds,dailyrainin,SoftwareType,DateUTC
2013-09-29 08:00:00,39.8,37.4,30.20,North,0,0.0,0.0,91,0.00,,---,0.00,VWS V14.00,2013-09-29 13:00:00,
2013-09-29 08:01:00,38.6,36.2,30.22,North,7,0.0,0.0,91,0.00,,---,0.00,VWS V14.00,2013-09-29 13:01:00,
2013-09-29 08:06:00,38.9,36.5,30.22,SSE,151,0.0,0.0,91,0.00,,---,0.00,VWS V14.00,2013-09-29 13:06:00,
2013-09-29 08:11:00,39.1,36.7,30.22,SSE,151,0.0,0.0,91,0.00,,---,0.00,VWS V14.00,2013-09-29 13:11:00,
2013-09-29 08:16:00,40.1,38.0,30.21,SSE,151,0.0,0.0,92,0.00,,---,0.00,VWS V14.00,2013-09-29 13:16:00,
2013-09-29 08:21:00,40.5,38.4,30.21,SSE,151,0.0,0.0,92,0.00,,---,0.00,VWS V14.00,2013-09-29 13:21:00,
2013-09-29 08:22:00,40.9,38.8,30.21,SSE,151,0.0,1.0,92,0.00,,---,0.00,VWS V14.00,2013-09-29 13:22:00,
2013-09-29 08:27:00,42.1,40.2,30.21,SSE,151,0.0,1.0,93,0.00,,---,0.00,VWS V14.00,2013-09-29 13:27:00,
2013-09-29 08:28:00,42.5,40.6,30.21,SSE,151,0.0,1.0,93,0.00,,---,0.00,VWS V14.00,2013-09-29 13:28:00,
2013-09-29 08:32:00,43.1,41.2,30.17,SSE,151,0.0,0.0,93,0.00,,---,0.00,VWS V14.00,2013-09-29 13:32:00,
2013-09-29 08:33:00,43.2,41.3,30.17,SSE,151,0.0,0.0,93,0.00,,---,0.00,VWS V14.00,2013-09-29 13:33:00,
2013-09-29 08:37:00,43.6,41.7,30.17,SSE,151,0.0,0.0,93,0.00,,---,0.00,VWS V14.00,2013-09-29 13:37:00,
2013-09-29 08:38:00,43.9,42.0,30.17,SSE,151,0.0,0.0,93,0.00,,---,0.00,VWS V14.00,2013-09-29 13:38:00,
2013-09-29 08:43:00,45.2,43.6,30.17,SSE,151,0.0,0.0,94,0.00,,---,0.00,VWS V14.00,2013-09-29 13:43:00,
2013-09-29 08:44:00,45.4,43.8,30.17,SSE,151,0.0,0.0,94,0.00,,---,0.00,VWS V14.00,2013-09-29 13:44:00,
2013-09-29 08:48:00,46.0,44.4,30.14,SSE,151,0.0,0.0,94,0.00,,---,0.00,VWS V14.00,2013-09-29 13:48:00,
2013-09-29 08:49:00,46.0,44.4,30.14,SSE,151,0.0,0.0,94,0.00,,---,0.00,VWS V14.00,2013-09-29 13:49:00,
2013-09-29 08:53:00,46.7,45.1,30.14,SSE,152,0.0,2.0,94,0.00,,---,0.00,VWS V14.00,2013-09-29 13:53:00,
2013-09-29 08:54:00,46.7,45.1,30.14,SSE,152,0.0,2.0,94,0.00,,---,0.00,VWS V14.00,2013-09-29 13:54:00,
2013-09-29 08:55:00,47.0,45.4,30.14,SSE,152,0.0,2.0,94,0.00,,---,0.00,VWS V14.00,2013-09-29 13:55:00,
2013-09-29 08:58:00,48.3,46.7,30.14,SSE,152,0.0,2.0,94,0.00,,---,0.00,VWS V14.00,2013-09-29 13:58:00,
2013-09-29 08:59:00,48.3,46.7,30.11,SSE,152,0.0,2.0,94,0.00,,---,0.00,VWS V14.00,2013-09-29 13:59:00,
2013-09-29 09:00:00,48.3,46.7,30.11,SSE,152,0.0,0.0,94,0.00,,---,0.00,VWS V14.00,2013-09-29 14:00:00,
2013-09-29 09:04:00,48.8,47.4,30.11,SSE,152,0.0,0.0,95,0.00,,---,0.00,VWS V14.00,2013-09-29 14:04:00,
2013-09-29 09:05:00,48.9,47.5,30.11,SSE,152,0.0,0.0,95,0.00,,---,0.00,VWS V14.00,2013-09-29 14:05:00,
2013-09-29 09:09:00,49.6,48.0,30.11,SSE,152,0.0,2.0,94,0.00,,---,0.00,VWS V14.00,2013-09-29 14:09:00,
2013-09-29 09:10:00,49.8,48.2,30.11,SSE,152,0.0,2.0,94,0.00,,---,0.00,VWS V14.00,2013-09-29 14:10:00,
2013-09-29 09:14:00,50.8,49.1,30.06,SSE,152,0.0,2.0,94,0.00,,---,0.00,VWS V14.00,2013-09-29 14:14:00,
2013-09-29 09:15:00,51.0,49.3,30.06,SSE,152,0.0,2.0,94,0.00,,---,0.00,VWS V14.00,2013-09-29 14:15:00,
2013-09-29 09:19:00,51.7,50.0,30.06,SSE,152,0.0,2.0,94,0.00,,---,0.00,VWS V14.00,2013-09-29 14:19:00,
2013-09-29 09:20:00,51.9,50.2,30.06,SSE,152,0.0,2.0,94,0.00,,---,0.00,VWS V14.00,2013-09-29 14:20:00,
2013-09-29 09:24:00,53.1,51.1,30.06,SSE,152,0.0,2.0,93,0.00,,---,0.00,VWS V14.00,2013-09-29 14:24:00,
2013-09-29 09:25:00,53.2,51.2,30.06,SSE,152,0.0,2.0,93,0.00,,---,0.00,VWS V14.00,2013-09-29 14:25:00,
2013-09-29 09:29:00,53.8,50.9,30.05,SSE,152,0.0,2.0,90,0.00,,---,0.00,VWS V14.00,2013-09-29 14:29:00,
2013-09-29 09:30:00,53.9,51.0,30.05,SSE,152,0.0,2.0,90,0.00,,---,0.00,VWS V14.00,2013-09-29 14:30:00,
2013-09-29 09:34:00,54.5,50.4,30.05,SSE,152,0.0,1.0,86,0.00,,---,0.00,VWS V14.00,2013-09-29 14:34:00,
2013-09-29 09:35:00,54.5,50.4,30.05,SSE,152,0.0,1.0,86,0.00,,---,0.00,VWS V14.00,2013-09-29 14:35:00,
2013-09-29 09:36:00,55.1,50.4,30.05,SSE,152,0.0,1.0,84,0.00,,---,0.00,VWS V14.00,2013-09-29 14:36:00,
2013-09-29 09:39:00,56.0,49.6,30.05,SSE,152,0.0,1.0,79,0.00,,---,0.00,VWS V14.00,2013-09-29 14:39:00,
2013-09-29 09:40:00,56.2,49.1,30.05,SSE,152,0.0,1.0,77,0.00,,---,0.00,VWS V14.00,2013-09-29 14:40:00,
2013-09-29 09:41:00,56.3,48.1,30.05,SSE,152,0.0,1.0,74,0.00,,---,0.00,VWS V14.00,2013-09-29 14:41:00,
2013-09-29 09:44:00,57.0,49.2,30.02,SSE,152,0.0,1.0,75,0.00,,---,0.00,VWS V14.00,2013-09-29 14:44:00,
2013-09-29 09:45:00,57.0,48.1,30.02,SSE,152,0.0,1.0,72,0.00,,---,0.00,VWS V14.00,2013-09-29 14:45:00,
2013-09-29 09:48:00,57.8,48.5,30.02,SSE,152,0.0,0.0,71,0.00,,---,0.00,VWS V14.00,2013-09-29 14:48:00,
2013-09-29 09:50:00,58.1,48.8,30.02,SSE,152,0.0,0.0,71,0.00,,---,0.00,VWS V14.00,2013-09-29 14:50:00,
2013-09-29 09:54:00,59.2,47.5,30.02,SSE,152,0.0,0.0,65,0.00,,---,0.00,VWS V14.00,2013-09-29 14:54:00,
2013-09-29 09:55:00,59.5,47.7,30.02,SSE,152,0.0,0.0,65,0.00,,---,0.00,VWS V14.00,2013-09-29 14:55:00,
2013-09-29 09:59:00,60.7,47.2,30.01,SSE,152,0.0,0.0,61,0.00,,---,0.00,VWS V14.00,2013-09-29 14:59:00,
2013-09-29 10:00:00,61.2,48.1,30.01,SSE,152,0.0,0.0,62,0.00,,---,0.00,VWS V14.00,2013-09-29 15:00:00,
2013-09-29 10:04:00,61.8,47.3,30.01,SSE,152,0.0,0.0,59,0.00,,---,0.00,VWS V14.00,2013-09-29 15:04:00,
2013-09-29 10:05:00,62.0,47.1,30.01,SSE,152,0.0,0.0,58,0.00,,---,0.00,VWS V14.00,2013-09-29 15:05:00,
2013-09-29 10:09:00,62.9,46.0,30.01,SSE,152,0.0,2.0,54,0.00,,---,0.00,VWS V14.00,2013-09-29 15:09:00,
2013-09-29 10:10:00,63.2,47.3,30.01,SSE,152,0.0,2.0,56,0.00,,---,0.00,VWS V14.00,2013-09-29 15:10:00,
2013-09-29 10:11:00,63.4,47.5,30.01,SSE,152,0.0,2.0,56,0.00,,---,0.00,VWS V14.00,2013-09-29 15:11:00,
2013-09-29 10:14:00,64.0,47.5,30.01,SSE,152,0.0,2.0,55,0.00,,---,0.00,VWS V14.00,2013-09-29 15:14:00,
2013-09-29 10:15:00,64.2,47.7,30.01,SSE,152,0.0,2.0,55,0.00,,---,0.00,VWS V14.00,2013-09-29 15:15:00,
2013-09-29 10:16:00,64.2,47.2,30.01,SSE,152,0.0,2.0,54,0.00,,---,0.00,VWS V14.00,2013-09-29 15:16:00,
2013-09-29 10:19:00,64.5,46.0,30.01,SSE,152,0.0,2.0,51,0.00,,---,0.00,VWS V14.00,2013-09-29 15:19:00,
2013-09-29 10:20:00,64.5,46.0,30.01,SSE,152,0.0,2.0,51,0.00,,---,0.00,VWS V14.00,2013-09-29 15:20:00,
2013-09-29 10:21:00,64.5,46.0,30.01,SSE,152,0.0,2.0,51,0.00,,---,0.00,VWS V14.00,2013-09-29 15:21:00,
2013-09-29 10:24:00,65.3,47.8,30.01,SSE,152,0.0,2.0,53,0.00,,---,0.00,VWS V14.00,2013-09-29 15:24:00,
2013-09-29 10:26:00,65.5,46.9,30.01,SSE,152,0.0,2.0,51,0.00,,---,0.00,VWS V14.00,2013-09-29 15:26:00,
2013-09-29 10:29:00,65.6,46.0,30.00,SSE,152,0.0,2.0,49,0.00,,---,0.00,VWS V14.00,2013-09-29 15:29:00,
2013-09-29 10:31:00,66.0,46.8,30.00,SSE,152,0.0,0.0,50,0.00,,---,0.00,VWS V14.00,2013-09-29 15:31:00,
2013-09-29 10:35:00,66.6,46.9,30.00,SSE,152,0.0,0.0,49,0.00,,---,0.00,VWS V14.00,2013-09-29 15:35:00,
2013-09-29 10:36:00,66.9,46.6,30.00,SSE,152,0.0,0.0,48,0.00,,---,0.00,VWS V14.00,2013-09-29 15:36:00,
2013-09-29 10:40:00,67.6,47.2,30.00,SSE,152,0.0,0.0,48,0.00,,---,0.00,VWS V14.00,2013-09-29 15:40:00,
2013-09-29 10:41:00,67.6,47.2,30.00,SSE,152,0.0,0.0,48,0.00,,---,0.00,VWS V14.00,2013-09-29 15:41:00,
2013-09-29 10:45:00,68.6,47.6,29.98,SSE,152,0.0,0.0,47,0.00,,---,0.00,VWS V14.00,2013-09-29 15:45:00,
2013-09-29 10:46:00,68.8,47.2,29.98,SSE,152,0.0,0.0,46,0.00,,---,0.00,VWS V14.00,2013-09-29 15:46:00,
2013-09-29 10:47:00,68.9,47.3,29.98,SSE,152,0.0,0.0,46,0.00,,---,0.00,VWS V14.00,2013-09-29 15:47:00,
2013-09-29 10:50:00,68.6,47.0,29.98,NE,55,0.0,0.0,46,0.00,,---,0.00,VWS V14.00,2013-09-29 15:50:00,
2013-09-29 10:51:00,68.6,47.0,29.98,NE,55,0.0,0.0,46,0.00,,---,0.00,VWS V14.00,2013-09-29 15:51:00,
2013-09-29 10:52:00,68.8,47.2,29.98,NE,55,0.0,0.0,46,0.00,,---,0.00,VWS V14.00,2013-09-29 15:52:00,
2013-09-29 10:55:00,68.8,47.2,29.98,NE,51,0.0,0.0,46,0.00,,---,0.00,VWS V14.00,2013-09-29 15:55:00,
2013-09-29 10:56:00,69.1,46.9,29.98,NE,51,0.0,0.0,45,0.00,,---,0.00,VWS V14.00,2013-09-29 15:56:00,
2013-09-29 10:57:00,69.1,46.9,29.98,ENE,61,0.0,0.0,45,0.00,,---,0.00,VWS V14.00,2013-09-29 15:57:00,
2013-09-29 11:00:00,69.6,46.8,29.98,ENE,61,0.0,0.0,44,0.00,,---,0.00,VWS V14.00,2013-09-29 16:00:00,
2013-09-29 11:01:00,69.6,46.1,29.98,ENE,61,0.0,0.0,43,0.00,,---,0.00,VWS V14.00,2013-09-29 16:01:00,
2013-09-29 11:02:00,69.9,45.8,29.98,ENE,61,0.0,0.0,42,0.00,,---,0.00,VWS V14.00,2013-09-29 16:02:00,
2013-09-29 11:05:00,70.4,46.9,29.98,ENE,61,0.0,0.0,43,0.00,,---,0.00,VWS V14.00,2013-09-29 16:05:00,
2013-09-29 11:06:00,70.4,46.2,29.98,ENE,61,0.0,0.0,42,0.00,,---,0.00,VWS V14.00,2013-09-29 16:06:00,
2013-09-29 11:07:00,70.6,45.8,29.98,ENE,61,0.0,0.0,41,0.00,,---,0.00,VWS V14.00,2013-09-29 16:07:00,
2013-09-29 11:10:00,70.8,46.0,29.98,NW,325,0.0,0.0,41,0.00,,---,0.00,VWS V14.00,2013-09-29 16:10:00,
2013-09-29 11:11:00,70.9,46.0,29.98,NW,325,0.0,0.0,41,0.00,,---,0.00,VWS V14.00,2013-09-29 16:11:00,
2013-09-29 11:13:00,70.9,46.0,29.98,NNW,329,0.0,0.0,41,0.00,,---,0.00,VWS V14.00,2013-09-29 16:13:00,
2013-09-29 11:16:00,71.3,46.4,29.97,NW,325,0.0,0.0,41,0.00,,---,0.00,VWS V14.00,2013-09-29 16:16:00,
2013-09-29 11:18:00,71.3,43.0,29.97,NE,41,0.0,0.0,36,0.00,,---,0.00,VWS V14.00,2013-09-29 16:18:00,
2013-09-29 11:21:00,71.8,44.2,29.97,NE,41,0.0,0.0,37,0.00,,---,0.00,VWS V14.00,2013-09-29 16:21:00,
2013-09-29 11:22:00,72.0,45.0,29.97,NE,41,0.0,0.0,38,0.00,,---,0.00,VWS V14.00,2013-09-29 16:22:00,
2013-09-29 11:23:00,72.0,43.6,29.97,NE,41,0.0,0.0,36,0.00,,---,0.00,VWS V14.00,2013-09-29 16:23:00,
2013-09-29 11:26:00,72.3,43.9,29.97,NE,41,0.0,0.0,36,0.00,,---,0.00,VWS V14.00,2013-09-29 16:26:00,
2013-09-29 11:27:00,72.3,43.9,29.97,NNE,17,0.0,0.0,36,0.00,,---,0.00,VWS V14.00,2013-09-29 16:27:00,
2013-09-29 11:28:00,72.3,43.1,29.97,SW,222,0.0,0.0,35,0.00,,---,0.00,VWS V14.00,2013-09-29 16:28:00,
2013-09-29 11:31:00,72.5,44.1,29.96,SW,222,0.0,0.0,36,0.00,,---,0.00,VWS V14.00,2013-09-29 16:31:00,
2013-09-29 11:32:00,72.8,43.6,29.96,SE,131,0.0,0.0,35,0.00,,---,0.00,VWS V14.00,2013-09-29 16:32:00,
2013-09-29 11:33:00,73.0,44.5,29.96,SE,131,0.0,0.0,36,0.00,,---,0.00,VWS V14.00,2013-09-29 16:33:00,
2013-09-29 11:36:00,73.2,41.6,29.96,ESE,104,5.0,7.0,32,0.00,,---,0.00,VWS V14.00,2013-09-29 16:36:00,
2013-09-29 11:37:00,73.3,43.3,29.96,ESE,110,5.0,7.0,34,0.00,,---,0.00,VWS V14.00,2013-09-29 16:37:00,
2013-09-29 11:38:00,73.3,42.5,29.96,ESE,110,5.0,7.0,33,0.00,,---,0.00,VWS V14.00,2013-09-29 16:38:00,
2013-09-29 11:41:00,73.3,42.5,29.96,ESE,110,0.0,7.0,33,0.00,,---,0.00,VWS V14.00,2013-09-29 16:41:00,
2013-09-29 11:42:00,73.5,43.4,29.96,ESE,110,0.0,7.0,34,0.00,,---,0.00,VWS V14.00,2013-09-29 16:42:00,
2013-09-29 11:44:00,74.0,43.9,29.94,ESE,110,0.0,7.0,34,0.00,,---,0.00,VWS V14.00,2013-09-29 16:44:00,
2013-09-29 11:46:00,74.4,43.5,29.94,SE,124,5.0,9.0,33,0.00,,---,0.00,VWS V14.00,2013-09-29 16:46:00,
2013-09-29 11:47:00,74.4,41.8,29.94,ESE,123,2.0,9.0,31,0.00,,---,0.00,VWS V14.00,2013-09-29 16:47:00,
2013-09-29 11:49:00,73.7,42.0,29.94,East,89,1.0,9.0,32,0.00,,---,0.00,VWS V14.00,2013-09-29 16:49:00,
2013-09-29 11:51:00,73.9,42.2,29.94,East,95,0.0,9.0,32,0.00,,---,0.00,VWS V14.00,2013-09-29 16:51:00,
2013-09-29 11:52:00,73.9,42.2,29.94,ESE,119,0.0,9.0,32,0.00,,---,0.00,VWS V14.00,2013-09-29 16:52:00,
2013-09-29 11:53:00,74.0,40.6,29.94,ESE,121,0.0,9.0,30,0.00,,---,0.00,VWS V14.00,2013-09-29 16:53:00,
2013-09-29 11:54:00,74.2,41.7,29.94,SE,144,0.0,9.0,31,0.00,,---,0.00,VWS V14.00,2013-09-29 16:54:00,
2013-09-29 11:56:00,74.7,39.5,29.94,NNE,16,1.0,9.0,28,0.00,,---,0.00,VWS V14.00,2013-09-29 16:56:00,
2013-09-29 11:57:00,74.9,39.6,29.94,North,0,7.0,9.0,28,0.00,,---,0.00,VWS V14.00,2013-09-29 16:57:00,
2013-09-29 11:58:00,75.1,42.4,29.94,NNW,347,5.0,9.0,31,0.00,,---,0.00,VWS V14.00,2013-09-29 16:58:00,
2013-09-29 11:59:00,75.1,42.4,29.94,NNW,347,0.0,9.0,31,0.00,,---,0.00,VWS V14.00,2013-09-29 16:59:00,
2013-09-29 12:01:00,75.3,38.1,29.94,West,281,4.0,8.0,26,0.00,,---,0.00,VWS V14.00,2013-09-29 17:01:00,
2013-09-29 12:02:00,75.3,38.1,29.94,NW,323,7.0,8.0,26,0.00,,---,0.00,VWS V14.00,2013-09-29 17:02:00,
2013-09-29 12:03:00,75.1,36.9,29.94,NW,311,5.0,10.0,25,0.00,,---,0.00,VWS V14.00,2013-09-29 17:03:00,
2013-09-29 12:04:00,74.9,38.7,29.94,WNW,296,0.0,10.0,27,0.00,,---,0.00,VWS V14.00,2013-09-29 17:04:00,
2013-09-29 12:07:00,74.7,37.6,29.94,WNW,292,5.0,13.0,26,0.00,,---,0.00,VWS V14.00,2013-09-29 17:07:00,
2013-09-29 12:08:00,74.9,37.7,29.94,WNW,282,4.0,13.0,26,0.00,,---,0.00,VWS V14.00,2013-09-29 17:08:00,
2013-09-29 12:10:00,74.9,38.7,29.94,WNW,294,4.0,13.0,27,0.00,,---,0.00,VWS V14.00,2013-09-29 17:10:00,
2013-09-29 12:12:00,74.7,38.5,29.94,WNW,292,6.0,13.0,27,0.00,,---,0.00,VWS V14.00,2013-09-29 17:12:00,
2013-09-29 12:13:00,74.6,37.5,29.94,WNW,285,7.0,13.0,26,0.00,,---,0.00,VWS V14.00,2013-09-29 17:13:00,
2013-09-29 12:15:00,74.9,38.7,29.94,NNW,347,14.0,14.0,27,0.00,,---,0.00,VWS V14.00,2013-09-29 17:15:00,
2013-09-29 12:17:00,74.6,36.5,29.94,NW,305,8.0,16.0,25,0.00,,---,0.00,VWS V14.00,2013-09-29 17:17:00,
2013-09-29 12:18:00,74.9,36.7,29.94,WNW,285,12.0,16.0,25,0.00,,---,0.00,VWS V14.00,2013-09-29 17:18:00,
2013-09-29 12:20:00,74.7,37.6,29.94,WNW,292,0.0,16.0,26,0.00,,---,0.00,VWS V14.00,2013-09-29 17:20:00,
2013-09-29 12:22:00,74.9,37.7,29.94,West,274,10.0,16.0,26,0.00,,---,0.00,VWS V14.00,2013-09-29 17:22:00,
2013-09-29 12:23:00,74.9,38.7,29.94,West,264,8.0,16.0,27,0.00,,---,0.00,VWS V14.00,2013-09-29 17:23:00,
2013-09-29 12:25:00,75.1,38.9,29.94,WNW,287,2.0,16.0,27,0.00,,---,0.00,VWS V14.00,2013-09-29 17:25:00,
2013-09-29 12:27:00,74.9,37.7,29.94,NW,308,6.0,16.0,26,0.00,,---,0.00,VWS V14.00,2013-09-29 17:27:00,
2013-09-29 12:28:00,74.9,37.7,29.94,WNW,295,5.0,16.0,26,0.00,,---,0.00,VWS V14.00,2013-09-29 17:28:00,
2013-09-29 12:30:00,74.9,37.7,29.94,West,278,7.0,7.0,26,0.00,,---,0.00,VWS V14.00,2013-09-29 17:30:00,
2013-09-29 12:32:00,75.3,39.0,29.94,WNW,288,3.0,8.0,27,0.00,,---,0.00,VWS V14.00,2013-09-29 17:32:00,
2013-09-29 12:33:00,75.1,36.9,29.94,West,267,6.0,11.0,25,0.00,,---,0.00,VWS V14.00,2013-09-29 17:33:00,
2013-09-29 12:35:00,75.4,38.2,29.94,WSW,258,0.0,11.0,26,0.00,,---,0.00,VWS V14.00,2013-09-29 17:35:00,
2013-09-29 12:37:00,75.6,37.3,29.94,NW,308,7.0,11.0,25,0.00,,---,0.00,VWS V14.00,2013-09-29 17:37:00,
2013-09-29 12:38:00,75.8,35.4,29.94,NNW,347,7.0,11.0,23,0.00,,---,0.00,VWS V14.00,2013-09-29 17:38:00,
2013-09-29 12:41:00,75.6,37.3,29.94,NW,308,0.0,11.0,25,0.00,,---,0.00,VWS V14.00,2013-09-29 17:41:00,
2013-09-29 12:42:00,75.4,37.2,29.94,NW,325,0.0,11.0,25,0.00,,---,0.00,VWS V14.00,2013-09-29 17:42:00,
2013-09-29 12:43:00,75.4,36.1,29.94,NW,325,0.0,11.0,24,0.00,,---,0.00,VWS V14.00,2013-09-29 17:43:00,
2013-09-29 12:44:00,75.4,36.1,29.94,NW,315,0.0,11.0,24,0.00,,---,0.00,VWS V14.00,2013-09-29 17:44:00,
2013-09-29 12:46:00,75.3,37.1,29.94,WNW,292,7.0,12.0,25,0.00,,---,0.00,VWS V14.00,2013-09-29 17:46:00,
2013-09-29 12:47:00,75.3,37.1,29.94,West,270,7.0,12.0,25,0.00,,---,0.00,VWS V14.00,2013-09-29 17:47:00,
2013-09-29 12:48:00,75.4,37.2,29.94,West,271,0.0,12.0,25,0.00,,---,0.00,VWS V14.00,2013-09-29 17:48:00,
2013-09-29 12:49:00,75.4,38.2,29.94,West,281,6.0,12.0,26,0.00,,---,0.00,VWS V14.00,2013-09-29 17:49:00,
2013-09-29 12:51:00,75.4,36.1,29.94,WNW,284,8.0,12.0,24,0.00,,---,0.00,VWS V14.00,2013-09-29 17:51:00,
2013-09-29 12:52:00,75.3,37.1,29.94,West,274,5.0,12.0,25,0.00,,---,0.00,VWS V14.00,2013-09-29 17:52:00,
2013-09-29 12:53:00,75.3,38.1,29.94,West,268,0.0,12.0,26,0.00,,---,0.00,VWS V14.00,2013-09-29 17:53:00,
2013-09-29 12:54:00,75.3,38.1,29.94,South,179,0.0,12.0,26,0.00,,---,0.00,VWS V14.00,2013-09-29 17:54:00,
2013-09-29 12:56:00,75.3,38.1,29.94,WNW,302,6.0,12.0,26,0.00,,---,0.00,VWS V14.00,2013-09-29 17:56:00,
2013-09-29 12:57:00,75.8,38.5,29.94,WNW,301,2.0,12.0,26,0.00,,---,0.00,VWS V14.00,2013-09-29 17:57:00,
2013-09-29 12:58:00,76.0,37.7,29.94,WSW,253,5.0,12.0,25,0.00,,---,0.00,VWS V14.00,2013-09-29 17:58:00,
2013-09-29 13:00:00,76.5,36.0,29.93,WNW,292,5.0,7.0,23,0.00,,---,0.00,VWS V14.00,2013-09-29 18:00:00,
2013-09-29 13:01:00,76.3,37.9,29.93,NW,313,1.0,8.0,25,0.00,,---,0.00,VWS V14.00,2013-09-29 18:01:00,
2013-09-29 13:02:00,76.3,37.9,29.93,NW,312,0.0,8.0,25,0.00,,---,0.00,VWS V14.00,2013-09-29 18:02:00,
2013-09-29 13:03:00,75.6,37.3,29.93,West,272,12.0,14.0,25,0.00,,---,0.00,VWS V14.00,2013-09-29 18:03:00,
2013-09-29 13:05:00,75.3,36.0,29.93,West,274,6.0,14.0,24,0.00,,---,0.00,VWS V14.00,2013-09-29 18:05:00,
2013-09-29 13:06:00,75.1,34.8,29.93,West,277,5.0,14.0,23,0.00,,---,0.00,VWS V14.00,2013-09-29 18:06:00,
2013-09-29 13:07:00,75.3,36.0,29.93,North,352,5.0,14.0,24,0.00,,---,0.00,VWS V14.00,2013-09-29 18:07:00,
2013-09-29 13:08:00,75.1,35.9,29.93,NW,305,6.0,14.0,24,0.00,,---,0.00,VWS V14.00,2013-09-29 18:08:00,
2013-09-29 13:10:00,75.3,37.1,29.93,West,267,5.0,14.0,25,0.00,,---,0.00,VWS V14.00,2013-09-29 18:10:00,
2013-09-29 13:11:00,75.4,38.2,29.93,WSW,256,0.0,14.0,26,0.00,,---,0.00,VWS V14.00,2013-09-29 18:11:00,
2013-09-29 13:12:00,75.4,38.2,29.93,West,264,1.0,14.0,26,0.00,,---,0.00,VWS V14.00,2013-09-29 18:12:00,
2013-09-29 13:14:00,75.4,35.1,29.93,West,277,2.0,14.0,23,0.00,,---,0.00,VWS V14.00,2013-09-29 18:14:00,
2013-09-29 13:15:00,75.6,37.3,29.93,North,359,1.0,14.0,25,0.00,,---,0.00,VWS V14.00,2013-09-29 18:15:00,
2013-09-29 13:16:00,76.0,35.6,29.93,West,280,7.0,14.0,23,0.00,,---,0.00,VWS V14.00,2013-09-29 18:16:00,
2013-09-29 13:18:00,75.8,35.4,29.93,WNW,284,11.0,14.0,23,0.00,,---,0.00,VWS V14.00,2013-09-29 18:18:00,
2013-09-29 13:19:00,75.8,35.4,29.93,SSW,213,6.0,14.0,23,0.00,,---,0.00,VWS V14.00,2013-09-29 18:19:00,
2013-09-29 13:20:00,76.0,36.6,29.93,WSW,256,0.0,14.0,24,0.00,,---,0.00,VWS V14.00,2013-09-29 18:20:00,
2013-09-29 13:22:00,76.1,36.7,29.93,WSW,250,6.0,14.0,24,0.00,,---,0.00,VWS V14.00,2013-09-29 18:22:00,
2013-09-29 13:23:00,76.0,34.5,29.93,SW,226,0.0,14.0,22,0.00,,---,0.00,VWS V14.00,2013-09-29 18:23:00,
2013-09-29 13:24:00,76.1,35.7,29.93,SSW,213,3.0,14.0,23,0.00,,---,0.00,VWS V14.00,2013-09-29 18:24:00,
2013-09-29 13:25:00,76.1,34.5,29.93,SW,215,0.0,14.0,22,0.00,,---,0.00,VWS V14.00,2013-09-29 18:25:00,
2013-09-29 13:27:00,76.5,34.9,29.93,WNW,284,0.0,14.0,22,0.00,,---,0.00,VWS V14.00,2013-09-29 18:27:00,
2013-09-29 13:28:00,76.7,36.2,29.93,WNW,296,1.0,14.0,23,0.00,,---,0.00,VWS V14.00,2013-09-29 18:28:00,
2013-09-29 13:29:00,76.8,37.3,29.91,WNW,294,7.0,14.0,24,0.00,,---,0.00,VWS V14.00,2013-09-29 18:29:00,
2013-09-29 13:30:00,76.5,36.0,29.91,West,265,5.0,11.0,23,0.00,,---,0.00,VWS V14.00,2013-09-29 18:30:00,
2013-09-29 13:32:00,76.5,37.1,29.91,West,267,7.0,11.0,24,0.00,,---,0.00,VWS V14.00,2013-09-29 18:32:00,
2013-09-29 13:33:00,76.7,37.2,29.91,SW,229,0.0,11.0,24,0.00,,---,0.00,VWS V14.00,2013-09-29 18:33:00,
2013-09-29 13:34:00,76.3,34.7,29.91,SSE,158,5.0,11.0,22,0.00,,---,0.00,VWS V14.00,2013-09-29 18:34:00,
2013-09-29 13:35:00,76.5,36.0,29.91,WSW,239,5.0,16.0,23,0.00,,---,0.00,VWS V14.00,2013-09-29 18:35:00,
2013-09-29 13:37:00,76.3,36.9,29.91,WSW,256,5.0,16.0,24,0.00,,---,0.00,VWS V14.00,2013-09-29 18:37:00,
2013-09-29 13:38:00,76.3,36.9,29.91,West,281,6.0,16.0,24,0.00,,---,0.00,VWS V14.00,2013-09-29 18:38:00,
2013-09-29 13:39:00,76.1,35.7,29.91,SW,230,4.0,16.0,23,0.00,,---,0.00,VWS V14.00,2013-09-29 18:39:00,
2013-09-29 13:40:00,76.1,37.8,29.91,WSW,250,3.0,16.0,25,0.00,,---,0.00,VWS V14.00,2013-09-29 18:40:00,
2013-09-29 13:43:00,76.5,37.1,29.91,SW,229,0.0,16.0,24,0.00,,---,0.00,VWS V14.00,2013-09-29 18:43:00,
2013-09-29 13:45:00,76.5,36.0,29.91,West,265,3.0,16.0,23,0.00,,---,0.00,VWS V14.00,2013-09-29 18:45:00,
2013-09-29 13:48:00,76.5,36.0,29.91,WNW,285,0.0,16.0,23,0.00,,---,0.00,VWS V14.00,2013-09-29 18:48:00,
2013-09-29 13:50:00,76.5,37.1,29.91,SW,223,3.0,16.0,24,0.00,,---,0.00,VWS V14.00,2013-09-29 18:50:00,
2013-09-29 13:51:00,77.0,36.4,29.91,West,270,2.0,16.0,23,0.00,,---,0.00,VWS V14.00,2013-09-29 18:51:00,
2013-09-29 13:53:00,76.8,35.1,29.91,SSW,209,3.0,16.0,22,0.00,,---,0.00,VWS V14.00,2013-09-29 18:53:00,
2013-09-29 13:55:00,76.7,35.0,29.91,West,272,6.0,16.0,22,0.00,,---,0.00,VWS V14.00,2013-09-29 18:55:00,
2013-09-29 13:56:00,76.3,34.7,29.91,West,275,7.0,16.0,22,0.00,,---,0.00,VWS V14.00,2013-09-29 18:56:00,
2013-09-29 13:58:00,76.7,35.0,29.91,WSW,248,7.0,16.0,22,0.00,,---,0.00,VWS V14.00,2013-09-29 18:58:00,
2013-09-29 14:01:00,76.7,33.9,29.90,West,264,11.0,11.0,21,0.00,,---,0.00,VWS V14.00,2013-09-29 19:01:00,
2013-09-29 14:03:00,76.5,33.7,29.90,West,272,0.0,11.0,21,0.00,,---,0.00,VWS V14.00,2013-09-29 19:03:00,
2013-09-29 14:06:00,76.8,34.0,29.90,SW,227,3.0,11.0,21,0.00,,---,0.00,VWS V14.00,2013-09-29 19:06:00,
2013-09-29 14:07:00,77.0,36.4,29.90,WNW,292,12.0,13.0,23,0.00,,---,0.00,VWS V14.00,2013-09-29 19:07:00,
2013-09-29 14:08:00,76.7,35.0,29.90,NW,304,6.0,13.0,22,0.00,,---,0.00,VWS V14.00,2013-09-29 19:08:00,
2013-09-29 14:09:00,76.5,34.9,29.90,West,274,8.0,13.0,22,0.00,,---,0.00,VWS V14.00,2013-09-29 19:09:00,
2013-09-29 14:11:00,76.5,33.7,29.90,WSW,237,0.0,13.0,21,0.00,,---,0.00,VWS V14.00,2013-09-29 19:11:00,
2013-09-29 14:12:00,76.5,34.9,29.90,WSW,240,0.0,13.0,22,0.00,,---,0.00,VWS V14.00,2013-09-29 19:12:00,
2013-09-29 14:13:00,76.7,36.2,29.90,WSW,240,0.0,13.0,23,0.00,,---,0.00,VWS V14.00,2013-09-29 19:13:00,
2013-09-29 14:14:00,76.8,34.0,29.90,WSW,240,0.0,13.0,21,0.00,,---,0.00,VWS V14.00,2013-09-29 19:14:00,
2013-09-29 14:16:00,77.0,32.9,29.90,West,274,5.0,13.0,20,0.00,,---,0.00,VWS V14.00,2013-09-29 19:16:00,
2013-09-29 14:17:00,77.4,36.7,29.90,West,278,2.0,13.0,23,0.00,,---,0.00,VWS V14.00,2013-09-29 19:17:00,
2013-09-29 14:18:00,77.4,36.7,29.90,SW,220,7.0,13.0,23,0.00,,---,0.00,VWS V14.00,2013-09-29 19:18:00,
2013-09-29 14:19:00,77.4,35.6,29.90,SW,222,2.0,13.0,22,0.00,,---,0.00,VWS V14.00,2013-09-29 19:19:00,
2013-09-29 14:22:00,77.0,34.1,29.90,West,274,7.0,13.0,21,0.00,,---,0.00,VWS V14.00,2013-09-29 19:22:00,
2013-09-29 14:23:00,77.0,35.3,29.90,West,270,2.0,13.0,22,0.00,,---,0.00,VWS V14.00,2013-09-29 19:23:00,
2013-09-29 14:24:00,77.0,34.1,29.90,SSW,213,0.0,13.0,21,0.00,,---,0.00,VWS V14.00,2013-09-29 19:24:00,
2013-09-29 14:27:00,77.0,36.4,29.90,WNW,301,6.0,13.0,23,0.00,,---,0.00,VWS V14.00,2013-09-29 19:27:00,
2013-09-29 14:28:00,77.0,36.4,29.90,NW,318,1.0,13.0,23,0.00,,---,0.00,VWS V14.00,2013-09-29 19:28:00,
2013-09-29 14:29:00,77.2,35.5,29.89,WNW,298,0.0,13.0,22,0.00,,---,0.00,VWS V14.00,2013-09-29 19:29:00,
2013-09-29 14:32:00,77.0,36.4,29.89,SW,230,5.0,10.0,23,0.00,,---,0.00,VWS V14.00,2013-09-29 19:32:00,
2013-09-29 14:33:00,77.2,36.6,29.89,West,271,7.0,10.0,23,0.00,,---,0.00,VWS V14.00,2013-09-29 19:33:00,
2013-09-29 14:35:00,77.7,37.0,29.89,West,275,0.0,10.0,23,0.00,,---,0.00,VWS V14.00,2013-09-29 19:35:00,
2013-09-29 14:37:00,77.7,35.9,29.89,West,275,10.0,10.0,22,0.00,,---,0.00,VWS V14.00,2013-09-29 19:37:00,
2013-09-29 14:38:00,77.9,36.0,29.89,West,260,5.0,11.0,22,0.00,,---,0.00,VWS V14.00,2013-09-29 19:38:00,
2013-09-29 14:40:00,78.1,36.2,29.89,NW,320,6.0,11.0,22,0.00,,---,0.00,VWS V14.00,2013-09-29 19:40:00,
2013-09-29 14:43:00,78.5,37.7,29.89,South,191,0.0,11.0,23,0.00,,---,0.00,VWS V14.00,2013-09-29 19:43:00,
2013-09-29 14:45:00,78.6,36.6,29.87,South,175,5.0,11.0,22,0.00,,---,0.00,VWS V14.00,2013-09-29 19:45:00,
2013-09-29 14:48:00,78.6,36.6,29.87,SSW,202,3.0,12.0,22,0.00,,---,0.00,VWS V14.00,2013-09-29 19:48:00,
2013-09-29 14:49:00,78.8,36.8,29.87,SW,232,1.0,12.0,22,0.00,,---,0.00,VWS V14.00,2013-09-29 19:49:00,
2013-09-29 14:53:00,77.9,37.2,29.87,WNW,282,8.0,14.0,23,0.00,,---,0.00,VWS V14.00,2013-09-29 19:53:00,
2013-09-29 14:54:00,77.9,37.2,29.87,West,275,10.0,14.0,23,0.00,,---,0.00,VWS V14.00,2013-09-29 19:54:00,
2013-09-29 14:59:00,78.1,37.3,29.86,SW,233,3.0,14.0,23,0.00,,---,0.00,VWS V14.00,2013-09-29 19:59:00,
2013-09-29 15:04:00,77.9,37.2,29.86,SSW,208,0.0,10.0,23,0.00,,---,0.00,VWS V14.00,2013-09-29 20:04:00,
2013-09-29 15:09:00,78.6,36.6,29.86,South,191,11.0,11.0,22,0.00,,---,0.00,VWS V14.00,2013-09-29 20:09:00,
2013-09-29 15:10:00,78.5,36.5,29.86,SSW,198,10.0,11.0,22,0.00,,---,0.00,VWS V14.00,2013-09-29 20:10:00,
2013-09-29 15:14:00,78.1,37.3,29.86,SSW,210,0.0,14.0,23,0.00,,---,0.00,VWS V14.00,2013-09-29 20:14:00,
2013-09-29 15:15:00,78.3,36.4,29.86,NW,306,2.0,14.0,22,0.00,,---,0.00,VWS V14.00,2013-09-29 20:15:00,
2013-09-29 15:19:00,78.6,37.7,29.86,West,275,0.0,14.0,23,0.00,,---,0.00,VWS V14.00,2013-09-29 20:19:00,
2013-09-29 15:20:00,78.5,35.4,29.86,West,280,0.0,14.0,21,0.00,,---,0.00,VWS V14.00,2013-09-29 20:20:00,
2013-09-29 15:24:00,78.3,36.4,29.86,SW,215,6.0,14.0,22,0.00,,---,0.00,VWS V14.00,2013-09-29 20:24:00,
2013-09-29 15:25:00,78.3,36.4,29.86,SW,216,7.0,14.0,22,0.00,,---,0.00,VWS V14.00,2013-09-29 20:25:00,
2013-09-29 15:29:00,78.5,37.7,29.84,WSW,240,6.0,14.0,23,0.00,,---,0.00,VWS V14.00,2013-09-29 20:29:00,
2013-09-29 15:30:00,78.5,37.7,29.84,SW,229,1.0,14.0,23,0.00,,---,0.00,VWS V14.00,2013-09-29 20:30:00,
2013-09-29 15:34:00,79.0,38.1,29.84,South,185,11.0,11.0,23,0.00,,---,0.00,VWS V14.00,2013-09-29 20:34:00,
2013-09-29 15:35:00,78.8,37.9,29.84,SSW,192,5.0,11.0,23,0.00,,---,0.00,VWS V14.00,2013-09-29 20:35:00,
2013-09-29 15:39:00,79.0,37.0,29.84,SSW,212,5.0,11.0,22,0.00,,---,0.00,VWS V14.00,2013-09-29 20:39:00,
2013-09-29 15:40:00,78.8,37.9,29.84,West,268,3.0,11.0,23,0.00,,---,0.00,VWS V14.00,2013-09-29 20:40:00,
2013-09-29 15:41:00,78.8,36.8,29.84,West,274,0.0,11.0,22,0.00,,---,0.00,VWS V14.00,2013-09-29 20:41:00,
2013-09-29 15:44:00,78.8,36.8,29.83,NW,306,0.0,11.0,22,0.00,,---,0.00,VWS V14.00,2013-09-29 20:44:00,
2013-09-29 15:45:00,78.8,36.8,29.83,NW,306,0.0,11.0,22,0.00,,---,0.00,VWS V14.00,2013-09-29 20:45:00,
2013-09-29 15:46:00,78.8,37.9,29.83,West,271,0.0,11.0,23,0.00,,---,0.00,VWS V14.00,2013-09-29 20:46:00,
2013-09-29 15:49:00,79.0,37.0,29.83,West,264,3.0,11.0,22,0.00,,---,0.00,VWS V14.00,2013-09-29 20:49:00,
2013-09-29 15:50:00,78.6,37.7,29.83,West,278,7.0,11.0,23,0.00,,---,0.00,VWS V14.00,2013-09-29 20:50:00,
2013-09-29 15:51:00,78.3,37.5,29.83,West,277,6.0,11.0,23,0.00,,---,0.00,VWS V14.00,2013-09-29 20:51:00,
2013-09-29 15:55:00,78.6,39.9,29.83,West,261,0.0,11.0,25,0.00,,---,0.00,VWS V14.00,2013-09-29 20:55:00,
2013-09-29 15:56:00,78.6,38.8,29.83,West,260,0.0,11.0,24,0.00,,---,0.00,VWS V14.00,2013-09-29 20:56:00,
2013-09-29 16:00:00,78.8,37.9,29.83,West,261,0.0,0.0,23,0.00,,---,0.00,VWS V14.00,2013-09-29 21:00:00,
2013-09-29 16:01:00,79.0,38.1,29.83,West,261,0.0,0.0,23,0.00,,---,0.00,VWS V14.00,2013-09-29 21:01:00,
2013-09-29 16:05:00,78.8,39.0,29.83,North,354,0.0,5.0,24,0.00,,---,0.00,VWS V14.00,2013-09-29 21:05:00,
2013-09-29 16:06:00,78.8,39.0,29.83,NNW,336,0.0,5.0,24,0.00,,---,0.00,VWS V14.00,2013-09-29 21:06:00,
2013-09-29 16:07:00,78.8,37.9,29.83,NW,318,0.0,5.0,23,0.00,,---,0.00,VWS V14.00,2013-09-29 21:07:00,
2013-09-29 16:10:00,78.6,39.9,29.83,WNW,301,0.0,7.0,25,0.00,,---,0.00,VWS V14.00,2013-09-29 21:10:00,
2013-09-29 16:11:00,78.6,39.9,29.83,NW,309,0.0,7.0,25,0.00,,---,0.00,VWS V14.00,2013-09-29 21:11:00,
2013-09-29 16:12:00,78.5,37.7,29.83,NW,312,3.0,8.0,23,0.00,,---,0.00,VWS V14.00,2013-09-29 21:12:00,
2013-09-29 16:15:00,78.3,39.6,29.85,WNW,291,3.0,10.0,25,0.00,,---,0.00,VWS V14.00,2013-09-29 21:15:00,
2013-09-29 16:16:00,78.3,38.6,29.85,NW,311,6.0,10.0,24,0.00,,---,0.00,VWS V14.00,2013-09-29 21:16:00,
2013-09-29 16:17:00,78.1,38.4,29.85,NW,323,7.0,12.0,24,0.00,,---,0.00,VWS V14.00,2013-09-29 21:17:00,
2013-09-29 16:20:00,77.4,37.8,29.85,NW,311,5.0,12.0,24,0.00,,---,0.00,VWS V14.00,2013-09-29 21:20:00,
2013-09-29 16:21:00,77.4,37.8,29.85,NNW,340,4.0,12.0,24,0.00,,---,0.00,VWS V14.00,2013-09-29 21:21:00,
2013-09-29 16:22:00,77.4,37.8,29.85,NNW,340,0.0,12.0,24,0.00,,---,0.00,VWS V14.00,2013-09-29 21:22:00,
2013-09-29 16:25:00,77.7,39.1,29.85,NW,319,7.0,12.0,25,0.00,,---,0.00,VWS V14.00,2013-09-29 21:25:00,
2013-09-29 16:26:00,77.6,39.0,29.85,NW,305,6.0,12.0,25,0.00,,---,0.00,VWS V14.00,2013-09-29 21:26:00,
2013-09-29 16:27:00,77.6,39.0,29.85,NW,313,2.0,12.0,25,0.00,,---,0.00,VWS V14.00,2013-09-29 21:27:00,
2013-09-29 16:30:00,77.6,39.0,29.85,NNW,335,7.0,9.0,25,0.00,,---,0.00,VWS V14.00,2013-09-29 21:30:00,
2013-09-29 16:32:00,77.4,38.9,29.85,NNW,344,0.0,9.0,25,0.00,,---,0.00,VWS V14.00,2013-09-29 21:32:00,
2013-09-29 16:35:00,77.6,39.0,29.85,NNW,340,0.0,9.0,25,0.00,,---,0.00,VWS V14.00,2013-09-29 21:35:00,
2013-09-29 16:37:00,77.9,38.2,29.85,North,356,3.0,9.0,24,0.00,,---,0.00,VWS V14.00,2013-09-29 21:37:00,
2013-09-29 16:40:00,78.1,38.4,29.85,North,11,0.0,9.0,24,0.00,,---,0.00,VWS V14.00,2013-09-29 21:40:00,
2013-09-29 16:42:00,77.9,38.2,29.85,WNW,292,10.0,12.0,24,0.00,,---,0.00,VWS V14.00,2013-09-29 21:42:00,
2013-09-29 16:43:00,77.7,37.0,29.85,NW,320,8.0,12.0,23,0.00,,---,0.00,VWS V14.00,2013-09-29 21:43:00,
2013-09-29 16:45:00,77.9,40.3,29.85,NNW,339,6.0,12.0,26,0.00,,---,0.00,VWS V14.00,2013-09-29 21:45:00,
2013-09-29 16:47:00,78.3,38.6,29.85,WNW,288,4.0,12.0,24,0.00,,---,0.00,VWS V14.00,2013-09-29 21:47:00,
2013-09-29 16:49:00,78.3,38.6,29.85,WNW,299,5.0,12.0,24,0.00,,---,0.00,VWS V14.00,2013-09-29 21:49:00,
2013-09-29 16:51:00,78.1,38.4,29.85,North,354,4.0,12.0,24,0.00,,---,0.00,VWS V14.00,2013-09-29 21:51:00,
2013-09-29 16:52:00,77.9,38.2,29.85,NW,313,4.0,12.0,24,0.00,,---,0.00,VWS V14.00,2013-09-29 21:52:00,
2013-09-29 16:53:00,77.9,38.2,29.85,NW,313,2.0,12.0,24,0.00,,---,0.00,VWS V14.00,2013-09-29 21:53:00,
2013-09-29 16:54:00,77.9,39.3,29.85,NW,313,3.0,12.0,25,0.00,,---,0.00,VWS V14.00,2013-09-29 21:54:00,
2013-09-29 16:56:00,77.7,38.1,29.85,NW,322,0.0,12.0,24,0.00,,---,0.00,VWS V14.00,2013-09-29 21:56:00,
2013-09-29 16:57:00,77.6,39.0,29.85,WNW,282,6.0,12.0,25,0.00,,---,0.00,VWS V14.00,2013-09-29 21:57:00,
2013-09-29 16:58:00,77.6,39.0,29.85,NW,308,8.0,12.0,25,0.00,,---,0.00,VWS V14.00,2013-09-29 21:58:00,
2013-09-29 16:59:00,77.6,36.9,29.85,WNW,298,3.0,12.0,23,0.00,,---,0.00,VWS V14.00,2013-09-29 21:59:00,
2013-09-29 17:01:00,77.6,38.0,29.85,West,260,0.0,0.0,24,0.00,,---,0.00,VWS V14.00,2013-09-29 22:01:00,
2013-09-29 17:02:00,77.4,37.8,29.85,West,281,0.0,7.0,24,0.00,,---,0.00,VWS V14.00,2013-09-29 22:02:00,
2013-09-29 17:03:00,77.6,38.0,29.85,West,281,0.0,7.0,24,0.00,,---,0.00,VWS V14.00,2013-09-29 22:03:00,
2013-09-29 17:05:00,77.4,37.8,29.85,NNW,343,6.0,8.0,24,0.00,,---,0.00,VWS V14.00,2013-09-29 22:05:00,
2013-09-29 17:06:00,77.2,38.7,29.85,NNW,346,0.0,8.0,25,0.00,,---,0.00,VWS V14.00,2013-09-29 22:06:00,
2013-09-29 17:08:00,77.2,38.7,29.85,North,1,0.0,8.0,25,0.00,,---,0.00,VWS V14.00,2013-09-29 22:08:00,
2013-09-29 17:10:00,77.2,38.7,29.85,NW,326,0.0,9.0,25,0.00,,---,0.00,VWS V14.00,2013-09-29 22:10:00,
2013-09-29 17:11:00,77.2,38.7,29.85,NNW,337,5.0,9.0,25,0.00,,---,0.00,VWS V14.00,2013-09-29 22:11:00,
2013-09-29 17:13:00,77.2,38.7,29.85,North,354,3.0,9.0,25,0.00,,---,0.00,VWS V14.00,2013-09-29 22:13:00,
2013-09-29 17:15:00,76.8,39.3,29.85,North,359,5.0,9.0,26,0.00,,---,0.00,VWS V14.00,2013-09-29 22:15:00,
2013-09-29 17:17:00,76.7,39.3,29.85,North,1,6.0,12.0,26,0.00,,---,0.00,VWS V14.00,2013-09-29 22:17:00,
2013-09-29 17:18:00,76.7,38.3,29.85,North,11,9.0,13.0,25,0.00,,---,0.00,VWS V14.00,2013-09-29 22:18:00,
2013-09-29 17:20:00,76.8,39.3,29.85,NNW,337,4.0,13.0,26,0.00,,---,0.00,VWS V14.00,2013-09-29 22:20:00,
2013-09-29 17:22:00,76.8,39.3,29.85,North,357,6.0,13.0,26,0.00,,---,0.00,VWS V14.00,2013-09-29 22:22:00,
2013-09-29 17:23:00,77.0,39.5,29.85,NNW,344,3.0,13.0,26,0.00,,---,0.00,VWS V14.00,2013-09-29 22:23:00,
2013-09-29 17:26:00,76.8,38.3,29.85,North,357,0.0,13.0,25,0.00,,---,0.00,VWS V14.00,2013-09-29 22:26:00,
2013-09-29 17:27:00,76.8,39.3,29.85,North,0,7.0,13.0,26,0.00,,---,0.00,VWS V14.00,2013-09-29 22:27:00,
2013-09-29 17:28:00,76.7,38.3,29.85,North,7,3.0,13.0,25,0.00,,---,0.00,VWS V14.00,2013-09-29 22:28:00,
2013-09-29 17:29:00,76.8,38.3,29.85,North,352,5.0,13.0,25,0.00,,---,0.00,VWS V14.00,2013-09-29 22:29:00,
2013-09-29 17:31:00,76.7,39.3,29.85,NNE,16,7.0,12.0,26,0.00,,---,0.00,VWS V14.00,2013-09-29 22:31:00,
2013-09-29 17:32:00,76.7,39.3,29.85,WNW,301,5.0,12.0,26,0.00,,---,0.00,VWS V14.00,2013-09-29 22:32:00,
2013-09-29 17:34:00,76.8,38.3,29.85,North,350,3.0,12.0,25,0.00,,---,0.00,VWS V14.00,2013-09-29 22:34:00,
2013-09-29 17:36:00,76.8,40.3,29.85,NW,315,4.0,12.0,27,0.00,,---,0.00,VWS V14.00,2013-09-29 22:36:00,
2013-09-29 17:37:00,77.0,39.5,29.85,NW,325,7.0,12.0,26,0.00,,---,0.00,VWS V14.00,2013-09-29 22:37:00,
2013-09-29 17:39:00,77.2,39.7,29.85,NW,311,6.0,12.0,26,0.00,,---,0.00,VWS V14.00,2013-09-29 22:39:00,
2013-09-29 17:42:00,77.2,39.7,29.85,WNW,291,5.0,12.0,26,0.00,,---,0.00,VWS V14.00,2013-09-29 22:42:00,
2013-09-29 17:44:00,77.2,38.7,29.85,WNW,299,0.0,12.0,25,0.00,,---,0.00,VWS V14.00,2013-09-29 22:44:00,
2013-09-29 17:45:00,77.4,38.9,29.85,WNW,301,0.0,12.0,25,0.00,,---,0.00,VWS V14.00,2013-09-29 22:45:00,
2013-09-29 17:47:00,77.4,38.9,29.85,NNW,347,8.0,12.0,25,0.00,,---,0.00,VWS V14.00,2013-09-29 22:47:00,
2013-09-29 17:48:00,77.2,38.7,29.85,NNW,343,6.0,12.0,25,0.00,,---,0.00,VWS V14.00,2013-09-29 22:48:00,
2013-09-29 17:50:00,77.0,39.5,29.85,NNW,337,0.0,12.0,26,0.00,,---,0.00,VWS V14.00,2013-09-29 22:50:00,
2013-09-29 17:52:00,77.0,38.5,29.85,NNW,337,0.0,12.0,25,0.00,,---,0.00,VWS V14.00,2013-09-29 22:52:00,
2013-09-29 17:55:00,77.2,38.7,29.85,West,278,3.0,12.0,25,0.00,,---,0.00,VWS V14.00,2013-09-29 22:55:00,
2013-09-29 17:57:00,77.0,38.5,29.85,WNW,287,7.0,12.0,25,0.00,,---,0.00,VWS V14.00,2013-09-29 22:57:00,
2013-09-29 17:58:00,77.0,39.5,29.85,NNW,346,5.0,12.0,26,0.00,,---,0.00,VWS V14.00,2013-09-29 22:58:00,
2013-09-29 18:00:00,77.0,38.5,29.85,NNW,347,0.0,0.0,25,0.00,,---,0.00,VWS V14.00,2013-09-29 23:00:00,
2013-09-29 18:02:00,77.0,39.5,29.85,NNW,347,0.0,0.0,26,0.00,,---,0.00,VWS V14.00,2013-09-29 23:02:00,
2013-09-29 18:03:00,77.0,38.5,29.85,NNW,343,0.0,0.0,25,0.00,,---,0.00,VWS V14.00,2013-09-29 23:03:00,
2013-09-29 18:05:00,77.2,38.7,29.85,WNW,298,0.0,1.0,25,0.00,,---,0.00,VWS V14.00,2013-09-29 23:05:00,
2013-09-29 18:07:00,77.0,38.5,29.85,NW,306,0.0,8.0,25,0.00,,---,0.00,VWS V14.00,2013-09-29 23:07:00,
2013-09-29 18:08:00,76.8,38.3,29.85,NW,308,0.0,8.0,25,0.00,,---,0.00,VWS V14.00,2013-09-29 23:08:00,
2013-09-29 18:10:00,76.8,39.3,29.85,WNW,292,6.0,11.0,26,0.00,,---,0.00,VWS V14.00,2013-09-29 23:10:00,
2013-09-29 18:11:00,76.7,39.3,29.85,WNW,295,6.0,11.0,26,0.00,,---,0.00,VWS V14.00,2013-09-29 23:11:00,
2013-09-29 18:12:00,76.7,37.2,29.85,WNW,289,3.0,12.0,24,0.00,,---,0.00,VWS V14.00,2013-09-29 23:12:00,
2013-09-29 18:13:00,76.5,36.0,29.85,WNW,301,6.0,12.0,23,0.00,,---,0.00,VWS V14.00,2013-09-29 23:13:00,
2013-09-29 18:15:00,76.5,38.1,29.86,NW,313,0.0,12.0,25,0.00,,---,0.00,VWS V14.00,2013-09-29 23:15:00,
2013-09-29 18:16:00,76.3,35.8,29.86,WNW,284,6.0,12.0,23,0.00,,---,0.00,VWS V14.00,2013-09-29 23:16:00,
2013-09-29 18:17:00,76.3,35.8,29.86,NW,320,3.0,12.0,23,0.00,,---,0.00,VWS V14.00,2013-09-29 23:17:00,
2013-09-29 18:18:00,76.3,36.9,29.86,NW,316,6.0,12.0,24,0.00,,---,0.00,VWS V14.00,2013-09-29 23:18:00,
2013-09-29 18:20:00,76.1,36.7,29.86,NW,326,5.0,12.0,24,0.00,,---,0.00,VWS V14.00,2013-09-29 23:20:00,
2013-09-29 18:21:00,76.1,36.7,29.86,NNW,339,5.0,12.0,24,0.00,,---,0.00,VWS V14.00,2013-09-29 23:21:00,
2013-09-29 18:23:00,76.0,35.6,29.86,WNW,296,7.0,12.0,23,0.00,,---,0.00,VWS V14.00,2013-09-29 23:23:00,
2013-09-29 18:25:00,76.0,36.6,29.86,North,359,6.0,12.0,24,0.00,,---,0.00,VWS V14.00,2013-09-29 23:25:00,
2013-09-29 18:26:00,76.0,35.6,29.86,WNW,291,7.0,12.0,23,0.00,,---,0.00,VWS V14.00,2013-09-29 23:26:00,
2013-09-29 18:28:00,76.0,36.6,29.86,West,275,2.0,12.0,24,0.00,,---,0.00,VWS V14.00,2013-09-29 23:28:00,
2013-09-29 18:30:00,76.0,35.6,29.86,NW,318,2.0,6.0,23,0.00,,---,0.00,VWS V14.00,2013-09-29 23:30:00,
2013-09-29 18:31:00,75.8,35.4,29.86,NW,309,5.0,10.0,23,0.00,,---,0.00,VWS V14.00,2013-09-29 23:31:00,
2013-09-29 18:33:00,75.8,35.4,29.86,WNW,295,2.0,10.0,23,0.00,,---,0.00,VWS V14.00,2013-09-29 23:33:00,
2013-09-29 18:34:00,75.8,35.4,29.86,NW,309,6.0,10.0,23,0.00,,---,0.00,VWS V14.00,2013-09-29 23:34:00,
2013-09-29 18:35:00,75.6,34.1,29.86,NW,308,0.0,10.0,22,0.00,,---,0.00,VWS V14.00,2013-09-29 23:35:00,
2013-09-29 18:36:00,75.6,34.1,29.86,NW,308,0.0,10.0,22,0.00,,---,0.00,VWS V14.00,2013-09-29 23:36:00,
2013-09-29 18:39:00,75.6,33.0,29.86,NW,320,8.0,10.0,21,0.00,,---,0.00,VWS V14.00,2013-09-29 23:39:00,
2013-09-29 18:40:00,75.4,34.0,29.86,WNW,299,7.0,11.0,22,0.00,,---,0.00,VWS V14.00,2013-09-29 23:40:00,
2013-09-29 18:41:00,75.4,34.0,29.86,WNW,302,6.0,11.0,22,0.00,,---,0.00,VWS V14.00,2013-09-29 23:41:00,
2013-09-29 18:44:00,75.3,33.9,29.87,NW,306,4.0,11.0,22,0.00,,---,0.00,VWS V14.00,2013-09-29 23:44:00,
2013-09-29 18:45:00,75.3,35.0,29.87,NNW,333,3.0,11.0,23,0.00,,---,0.00,VWS V14.00,2013-09-29 23:45:00,
2013-09-29 18:46:00,75.1,33.7,29.87,NNW,333,2.0,11.0,22,0.00,,---,0.00,VWS V14.00,2013-09-29 23:46:00,
2013-09-29 18:49:00,75.1,34.8,29.87,NW,313,6.0,11.0,23,0.00,,---,0.00,VWS V14.00,2013-09-29 23:49:00,
2013-09-29 18:51:00,75.1,33.7,29.87,NNW,330,5.0,11.0,22,0.00,,---,0.00,VWS V14.00,2013-09-29 23:51:00,
2013-09-29 18:52:00,74.9,33.5,29.87,North,349,3.0,11.0,22,0.00,,---,0.00,VWS V14.00,2013-09-29 23:52:00,
2013-09-29 18:54:00,74.7,33.4,29.87,NNW,329,0.0,11.0,22,0.00,,---,0.00,VWS V14.00,2013-09-29 23:54:00,
2013-09-29 18:55:00,74.7,33.4,29.87,WNW,298,3.0,11.0,22,0.00,,---,0.00,VWS V14.00,2013-09-29 23:55:00,
2013-09-29 18:56:00,74.7,33.4,29.87,NW,323,4.0,11.0,22,0.00,,---,0.00,VWS V14.00,2013-09-29 23:56:00,
2013-09-29 18:57:00,74.7,33.4,29.87,NW,319,2.0,11.0,22,0.00,,---,0.00,VWS V14.00,2013-09-29 23:57:00,
2013-09-29 18:59:00,74.7,33.4,29.87,NW,316,0.0,11.0,22,0.00,,---,0.00,VWS V14.00,2013-09-29 23:59:00,
2013-09-29 19:00:00,74.6,33.3,29.87,NW,316,0.0,0.0,22,0.00,,---,0.00,VWS V14.00,2013-09-30 00:00:00,
2013-09-29 19:01:00,74.6,33.3,29.87,NW,316,0.0,0.0,22,0.00,,---,0.00,VWS V14.00,2013-09-30 00:01:00,
2013-09-29 19:02:00,74.6,33.3,29.87,NW,316,0.0,0.0,22,0.00,,---,0.00,VWS V14.00,2013-09-30 00:02:00,
2013-09-29 19:04:00,74.6,33.3,29.87,NW,316,0.0,0.0,22,0.00,,---,0.00,VWS V14.00,2013-09-30 00:04:00,
2013-09-29 19:05:00,74.4,33.1,29.87,NW,316,0.0,0.0,22,0.00,,---,0.00,VWS V14.00,2013-09-30 00:05:00,
2013-09-29 19:06:00,74.4,34.2,29.87,NW,316,0.0,0.0,23,0.00,,---,0.00,VWS V14.00,2013-09-30 00:06:00,
2013-09-29 19:07:00,74.4,33.1,29.87,NW,316,0.0,0.0,22,0.00,,---,0.00,VWS V14.00,2013-09-30 00:07:00,
2013-09-29 19:09:00,74.4,33.1,29.87,NW,316,0.0,0.0,22,0.00,,---,0.00,VWS V14.00,2013-09-30 00:09:00,
2013-09-29 19:10:00,74.4,33.1,29.87,NW,316,0.0,0.0,22,0.00,,---,0.00,VWS V14.00,2013-09-30 00:10:00,
2013-09-29 19:11:00,74.4,34.2,29.87,NW,316,0.0,0.0,23,0.00,,---,0.00,VWS V14.00,2013-09-30 00:11:00,
2013-09-29 19:12:00,74.4,34.2,29.87,NW,316,0.0,0.0,23,0.00,,---,0.00,VWS V14.00,2013-09-30 00:12:00,
2013-09-29 19:14:00,74.2,33.0,29.89,NW,316,0.0,0.0,22,0.00,,---,0.00,VWS V14.00,2013-09-30 00:14:00,
2013-09-29 19:15:00,74.2,34.1,29.89,NW,316,0.0,0.0,23,0.00,,---,0.00,VWS V14.00,2013-09-30 00:15:00,
2013-09-29 19:17:00,74.0,33.9,29.89,NW,316,0.0,0.0,23,0.00,,---,0.00,VWS V14.00,2013-09-30 00:17:00,
2013-09-29 19:18:00,74.0,35.0,29.89,NW,316,0.0,0.0,24,0.00,,---,0.00,VWS V14.00,2013-09-30 00:18:00,
2013-09-29 19:20:00,73.7,33.6,29.89,NW,316,0.0,0.0,23,0.00,,---,0.00,VWS V14.00,2013-09-30 00:20:00,
2013-09-29 19:21:00,73.7,34.7,29.89,NW,316,0.0,0.0,24,0.00,,---,0.00,VWS V14.00,2013-09-30 00:21:00,
2013-09-29 19:22:00,73.5,33.5,29.89,NW,316,0.0,0.0,23,0.00,,---,0.00,VWS V14.00,2013-09-30 00:22:00,
2013-09-29 19:23:00,73.5,34.5,29.89,NW,316,0.0,0.0,24,0.00,,---,0.00,VWS V14.00,2013-09-30 00:23:00,
2013-09-29 19:25:00,73.2,35.3,29.89,NW,316,0.0,0.0,25,0.00,,---,0.00,VWS V14.00,2013-09-30 00:25:00,
2013-09-29 19:26:00,73.0,35.1,29.89,NW,316,0.0,0.0,25,0.00,,---,0.00,VWS V14.00,2013-09-30 00:26:00,
2013-09-29 19:27:00,72.8,35.0,29.89,NW,316,0.0,0.0,25,0.00,,---,0.00,VWS V14.00,2013-09-30 00:27:00,
2013-09-29 19:28:00,72.7,34.9,29.89,NW,316,0.0,0.0,25,0.00,,---,0.00,VWS V14.00,2013-09-30 00:28:00,
2013-09-29 19:30:00,72.5,34.7,29.89,NW,316,0.0,0.0,25,0.00,,---,0.00,VWS V14.00,2013-09-30 00:30:00,
2013-09-29 19:31:00,72.3,34.5,29.89,NW,316,0.0,0.0,25,0.00,,---,0.00,VWS V14.00,2013-09-30 00:31:00,
2013-09-29 19:32:00,72.3,34.5,29.89,NW,316,0.0,0.0,25,0.00,,---,0.00,VWS V14.00,2013-09-30 00:32:00,
2013-09-29 19:33:00,72.1,35.4,29.89,NW,316,0.0,0.0,26,0.00,,---,0.00,VWS V14.00,2013-09-30 00:33:00,
2013-09-29 19:35:00,72.0,35.3,29.89,NW,316,0.0,0.0,26,0.00,,---,0.00,VWS V14.00,2013-09-30 00:35:00,
2013-09-29 19:36:00,72.0,35.3,29.89,NW,316,0.0,0.0,26,0.00,,---,0.00,VWS V14.00,2013-09-30 00:36:00,
2013-09-29 19:37:00,71.8,35.1,29.89,NW,316,0.0,0.0,26,0.00,,---,0.00,VWS V14.00,2013-09-30 00:37:00,
2013-09-29 19:38:00,71.5,35.8,29.89,NW,316,0.0,0.0,27,0.00,,---,0.00,VWS V14.00,2013-09-30 00:38:00,
2013-09-29 19:40:00,71.5,35.8,29.89,NW,316,0.0,0.0,27,0.00,,---,0.00,VWS V14.00,2013-09-30 00:40:00,
2013-09-29 19:42:00,71.5,35.8,29.89,NW,316,0.0,0.0,27,0.00,,---,0.00,VWS V14.00,2013-09-30 00:42:00,
2013-09-29 19:43:00,71.5,35.8,29.89,NW,316,0.0,0.0,27,0.00,,---,0.00,VWS V14.00,2013-09-30 00:43:00,
2013-09-29 19:45:00,70.4,35.8,29.90,NW,316,0.0,0.0,28,0.00,,---,0.00,VWS V14.00,2013-09-30 00:45:00,
2013-09-29 19:47:00,70.3,34.8,29.90,NW,316,0.0,0.0,27,0.00,,---,0.00,VWS V14.00,2013-09-30 00:47:00,
2013-09-29 19:49:00,69.9,36.2,29.90,NW,316,0.0,0.0,29,0.00,,---,0.00,VWS V14.00,2013-09-30 00:49:00,
2013-09-29 19:50:00,69.8,36.1,29.90,NW,316,0.0,0.0,29,0.00,,---,0.00,VWS V14.00,2013-09-30 00:50:00,
2013-09-29 19:52:00,69.1,37.2,29.90,NW,316,0.0,0.0,31,0.00,,---,0.00,VWS V14.00,2013-09-30 00:52:00,
2013-09-29 19:54:00,68.6,37.6,29.90,NW,316,0.0,0.0,32,0.00,,---,0.00,VWS V14.00,2013-09-30 00:54:00,
2013-09-29 19:55:00,68.4,37.4,29.90,NW,316,0.0,0.0,32,0.00,,---,0.00,VWS V14.00,2013-09-30 00:55:00,
2013-09-29 19:57:00,67.6,36.7,29.90,NW,316,0.0,0.0,32,0.00,,---,0.00,VWS V14.00,2013-09-30 00:57:00,
2013-09-29 19:59:00,67.3,36.5,29.92,NW,316,0.0,0.0,32,0.00,,---,0.00,VWS V14.00,2013-09-30 00:59:00,
2013-09-29 20:00:00,67.1,36.3,29.92,NW,316,0.0,0.0,32,0.00,,---,0.00,VWS V14.00,2013-09-30 01:00:00,
2013-09-29 20:03:00,66.8,36.8,29.92,NW,316,0.0,0.0,33,0.00,,---,0.00,VWS V14.00,2013-09-30 01:03:00,
2013-09-29 20:04:00,66.4,37.9,29.92,NW,316,0.0,0.0,35,0.00,,---,0.00,VWS V14.00,2013-09-30 01:04:00,
2013-09-29 20:05:00,66.3,37.8,29.92,NW,316,0.0,0.0,35,0.00,,---,0.00,VWS V14.00,2013-09-30 01:05:00,
2013-09-29 20:08:00,65.6,38.0,29.92,NW,316,0.0,0.0,36,0.00,,---,0.00,VWS V14.00,2013-09-30 01:08:00,
2013-09-29 20:09:00,65.3,38.4,29.92,NW,316,0.0,0.0,37,0.00,,---,0.00,VWS V14.00,2013-09-30 01:09:00,
2013-09-29 20:10:00,64.8,38.6,29.92,NW,316,0.0,0.0,38,0.00,,---,0.00,VWS V14.00,2013-09-30 01:10:00,
2013-09-29 20:13:00,64.2,38.1,29.92,NW,316,0.0,0.0,38,0.00,,---,0.00,VWS V14.00,2013-09-30 01:13:00,
2013-09-29 20:14:00,63.9,37.8,29.89,NW,316,0.0,0.0,38,0.00,,---,0.00,VWS V14.00,2013-09-30 01:14:00,
2013-09-29 20:15:00,63.7,38.3,29.89,NW,316,0.0,0.0,39,0.00,,---,0.00,VWS V14.00,2013-09-30 01:15:00,
2013-09-29 20:18:00,63.1,37.8,29.89,NW,316,0.0,0.0,39,0.00,,---,0.00,VWS V14.00,2013-09-30 01:18:00,
2013-09-29 20:19:00,62.9,38.2,29.89,NW,316,0.0,0.0,40,0.00,,---,0.00,VWS V14.00,2013-09-30 01:19:00,
2013-09-29 20:20:00,62.6,38.6,29.89,NW,316,0.0,0.0,41,0.00,,---,0.00,VWS V14.00,2013-09-30 01:20:00,
2013-09-29 20:23:00,62.6,38.6,29.89,NW,316,0.0,0.0,41,0.00,,---,0.00,VWS V14.00,2013-09-30 01:23:00,
2013-09-29 20:25:00,62.6,38.6,29.89,NW,316,0.0,0.0,41,0.00,,---,0.00,VWS V14.00,2013-09-30 01:25:00,
2013-09-29 20:28:00,62.6,38.6,29.89,NW,316,0.0,0.0,41,0.00,,---,0.00,VWS V14.00,2013-09-30 01:28:00,
2013-09-29 20:30:00,62.6,38.6,29.90,NW,316,0.0,0.0,41,0.00,,---,0.00,VWS V14.00,2013-09-30 01:30:00,
2013-09-29 20:33:00,62.6,38.6,29.90,NW,316,0.0,0.0,41,0.00,,---,0.00,VWS V14.00,2013-09-30 01:33:00,
2013-09-29 20:34:00,62.6,38.6,29.90,NW,316,0.0,0.0,41,0.00,,---,0.00,VWS V14.00,2013-09-30 01:34:00,
2013-09-29 20:35:00,62.6,38.6,29.90,NW,316,0.0,0.0,41,0.00,,---,0.00,VWS V14.00,2013-09-30 01:35:00,
2013-09-29 20:38:00,62.6,38.6,29.90,NW,316,0.0,0.0,41,0.00,,---,0.00,VWS V14.00,2013-09-30 01:38:00,
2013-09-29 20:39:00,62.6,38.6,29.90,NW,316,0.0,0.0,41,0.00,,---,0.00,VWS V14.00,2013-09-30 01:39:00,
2013-09-29 20:40:00,62.6,38.6,29.90,NW,316,0.0,0.0,41,0.00,,---,0.00,VWS V14.00,2013-09-30 01:40:00,
2013-09-29 20:41:00,62.6,38.6,29.90,NW,316,0.0,0.0,41,0.00,,---,0.00,VWS V14.00,2013-09-30 01:41:00,
2013-09-29 20:43:00,62.6,38.6,29.90,NW,316,0.0,0.0,41,0.00,,---,0.00,VWS V14.00,2013-09-30 01:43:00,
2013-09-29 20:44:00,62.6,38.6,29.91,NW,316,0.0,0.0,41,0.00,,---,0.00,VWS V14.00,2013-09-30 01:44:00,
2013-09-29 20:46:00,62.6,38.6,29.91,NW,316,0.0,0.0,41,0.00,,---,0.00,VWS V14.00,2013-09-30 01:46:00,
2013-09-29 20:48:00,62.6,38.6,29.91,NW,316,0.0,0.0,41,0.00,,---,0.00,VWS V14.00,2013-09-30 01:48:00,
2013-09-29 20:49:00,62.6,38.6,29.91,NW,316,0.0,0.0,41,0.00,,---,0.00,VWS V14.00,2013-09-30 01:49:00,
2013-09-29 20:51:00,62.6,38.6,29.91,NW,316,0.0,0.0,41,0.00,,---,0.00,VWS V14.00,2013-09-30 01:51:00,
2013-09-29 20:53:00,58.6,35.0,29.91,NW,316,0.0,0.0,41,0.00,,---,0.00,VWS V14.00,2013-09-30 01:53:00,
2013-09-29 20:54:00,58.4,34.8,29.91,NW,316,0.0,0.0,41,0.00,,---,0.00,VWS V14.00,2013-09-30 01:54:00,
2013-09-29 20:56:00,58.3,38.2,29.91,NW,316,0.0,0.0,47,0.00,,---,0.00,VWS V14.00,2013-09-30 01:56:00,
2013-09-29 20:58:00,58.0,37.9,29.91,NW,316,0.0,0.0,47,0.00,,---,0.00,VWS V14.00,2013-09-30 01:58:00,
2013-09-29 20:59:00,58.0,37.9,29.94,NW,316,0.0,0.0,47,0.00,,---,0.00,VWS V14.00,2013-09-30 01:59:00,
2013-09-29 21:01:00,57.8,37.7,29.94,NW,316,0.0,0.0,47,0.00,,---,0.00,VWS V14.00,2013-09-30 02:01:00,
2013-09-29 21:03:00,57.6,37.5,29.94,NW,316,0.0,0.0,47,0.00,,---,0.00,VWS V14.00,2013-09-30 02:03:00,
2013-09-29 21:04:00,57.6,37.5,29.94,NW,316,0.0,0.0,47,0.00,,---,0.00,VWS V14.00,2013-09-30 02:04:00,
2013-09-29 21:06:00,57.6,37.5,29.94,NW,316,0.0,0.0,47,0.00,,---,0.00,VWS V14.00,2013-09-30 02:06:00,
2013-09-29 21:08:00,57.5,38.0,29.94,NW,316,0.0,0.0,48,0.00,,---,0.00,VWS V14.00,2013-09-30 02:08:00,
2013-09-29 21:09:00,57.3,37.8,29.94,NW,316,0.0,0.0,48,0.00,,---,0.00,VWS V14.00,2013-09-30 02:09:00,
2013-09-29 21:11:00,57.3,37.8,29.94,NW,316,0.0,0.0,48,0.00,,---,0.00,VWS V14.00,2013-09-30 02:11:00,
2013-09-29 21:13:00,57.3,37.8,29.94,NW,316,0.0,0.0,48,0.00,,---,0.00,VWS V14.00,2013-09-30 02:13:00,
2013-09-29 21:15:00,57.3,37.8,29.88,NW,316,0.0,0.0,48,0.00,,---,0.00,VWS V14.00,2013-09-30 02:15:00,
2013-09-29 21:16:00,57.3,37.8,29.88,NW,316,0.0,0.0,48,0.00,,---,0.00,VWS V14.00,2013-09-30 02:16:00,
2013-09-29 21:19:00,56.5,37.6,29.88,NW,316,0.0,0.0,49,0.00,,---,0.00,VWS V14.00,2013-09-30 02:19:00,
2013-09-29 21:20:00,56.5,38.1,29.88,NW,316,0.0,0.0,50,0.00,,---,0.00,VWS V14.00,2013-09-30 02:20:00,
2013-09-29 21:21:00,56.3,37.9,29.88,NW,316,0.0,0.0,50,0.00,,---,0.00,VWS V14.00,2013-09-30 02:21:00,
2013-09-29 21:22:00,56.3,37.9,29.88,NW,316,0.0,0.0,50,0.00,,---,0.00,VWS V14.00,2013-09-30 02:22:00,
2013-09-29 21:25:00,56.0,37.6,29.88,NW,316,0.0,0.0,50,0.00,,---,0.00,VWS V14.00,2013-09-30 02:25:00,
2013-09-29 21:26:00,56.0,37.6,29.88,NW,316,0.0,0.0,50,0.00,,---,0.00,VWS V14.00,2013-09-30 02:26:00,
2013-09-29 21:27:00,56.0,37.6,29.88,NW,316,0.0,0.0,50,0.00,,---,0.00,VWS V14.00,2013-09-30 02:27:00,
2013-09-29 21:30:00,56.0,37.6,29.89,NW,316,0.0,0.0,50,0.00,,---,0.00,VWS V14.00,2013-09-30 02:30:00,
2013-09-29 21:31:00,56.0,37.6,29.89,NW,316,0.0,0.0,50,0.00,,---,0.00,VWS V14.00,2013-09-30 02:31:00,
2013-09-29 21:32:00,56.0,37.6,29.89,NW,316,0.0,0.0,50,0.00,,---,0.00,VWS V14.00,2013-09-30 02:32:00,
2013-09-29 21:35:00,56.0,37.6,29.89,NW,316,0.0,0.0,50,0.00,,---,0.00,VWS V14.00,2013-09-30 02:35:00,
2013-09-29 21:36:00,56.0,37.6,29.89,NW,316,0.0,0.0,50,0.00,,---,0.00,VWS V14.00,2013-09-30 02:36:00,
2013-09-29 21:37:00,56.0,37.6,29.89,NW,316,0.0,0.0,50,0.00,,---,0.00,VWS V14.00,2013-09-30 02:37:00,
2013-09-29 21:40:00,55.4,37.1,29.89,NW,316,0.0,0.0,50,0.00,,---,0.00,VWS V14.00,2013-09-30 02:40:00,
2013-09-29 21:41:00,55.4,37.1,29.89,NW,316,0.0,0.0,50,0.00,,---,0.00,VWS V14.00,2013-09-30 02:41:00,
2013-09-29 21:42:00,55.4,37.1,29.89,NW,316,0.0,0.0,50,0.00,,---,0.00,VWS V14.00,2013-09-30 02:42:00,
2013-09-29 21:46:00,55.4,37.1,29.89,NW,316,0.0,0.0,50,0.00,,---,0.00,VWS V14.00,2013-09-30 02:46:00,
2013-09-29 21:47:00,55.4,37.1,29.89,NW,316,0.0,0.0,50,0.00,,---,0.00,VWS V14.00,2013-09-30 02:47:00,
2013-09-29 21:51:00,54.5,37.7,29.89,NW,316,0.0,0.0,53,0.00,,---,0.00,VWS V14.00,2013-09-30 02:51:00,
2013-09-29 21:52:00,54.4,37.6,29.89,NW,316,0.0,0.0,53,0.00,,---,0.00,VWS V14.00,2013-09-30 02:52:00,
2013-09-29 21:56:00,53.8,37.1,29.89,NW,316,0.0,0.0,53,0.00,,---,0.00,VWS V14.00,2013-09-30 02:56:00,
2013-09-29 21:57:00,53.6,36.9,29.89,NW,316,0.0,0.0,53,0.00,,---,0.00,VWS V14.00,2013-09-30 02:57:00,